Time;durP1;ratioP1;P1;durP2;ratioP2;P2;SDS_P1;SDS_P2;PMS_P1;PMS_P2;Temp;Humidity;BMP_temperature;BMP_pressure;BME280_temperature;BME280_humidity;BME280_pressure;Samples;Min_cycle;Max_cycle;Signal;HPM_P1;HPM_P2
2021/09/11 00:01:20;;;;;;;10.10;6.10;;;;;;;;;;5034285;28;20464;-56
2021/09/11 00:03:46;;;;;;;10.68;6.72;;;;;;;;;;5046417;28;20371;-56
2021/09/11 00:06:12;;;;;;;10.27;6.25;;;;;;;;;;5053844;28;20055;-57
2021/09/11 00:08:38;;;;;;;10.85;6.45;;;;;;;;;;5054276;28;20450;-56
2021/09/11 00:11:04;;;;;;;12.20;6.95;;;;;;;;;;5038140;28;20043;-56
2021/09/11 00:13:30;;;;;;;11.95;6.05;;;;;;;;;;5033808;28;20017;-56
2021/09/11 00:15:56;;;;;;;11.25;6.93;;;;;;;;;;5033998;28;20487;-56
2021/09/11 00:18:22;;;;;;;13.57;7.20;;;;;;;;;;5043367;28;20032;-56
2021/09/11 00:20:48;;;;;;;13.13;7.18;;;;;;;;;;5053820;28;20051;-56
2021/09/11 00:23:14;;;;;;;12.07;7.57;;;;;;;;;;5054034;28;20431;-56
2021/09/11 00:25:40;;;;;;;13.25;7.55;;;;;;;;;;5042284;28;20108;-56
2021/09/11 00:28:06;;;;;;;12.50;6.88;;;;;;;;;;5032635;28;20033;-56
2021/09/11 00:30:32;;;;;;;13.65;7.30;;;;;;;;;;5033237;28;20336;-56
2021/09/11 00:32:58;;;;;;;10.88;6.75;;;;;;;;;;5040166;28;20066;-56
2021/09/11 00:35:24;;;;;;;12.00;7.07;;;;;;;;;;5052545;28;20033;-56
2021/09/11 00:37:50;;;;;;;18.30;8.45;;;;;;;;;;5053659;28;20082;-56
2021/09/11 00:40:17;;;;;;;14.10;8.35;;;;;;;;;;5047037;28;20382;-56
2021/09/11 00:42:47;;;;;;;13.70;8.05;;;;;;;;;;5033374;28;20017;-56
2021/09/11 00:45:14;;;;;;;;;;;;;;;;;;5033429;28;20087;-56
2021/09/11 00:47:40;;;;;;;12.20;6.95;;;;;;;;;;5033246;28;20294;-56
2021/09/11 00:50:06;;;;;;;14.18;8.45;;;;;;;;;;5049628;28;20039;-56
2021/09/11 00:52:32;;;;;;;12.85;7.07;;;;;;;;;;5053361;28;20043;-56
2021/09/11 00:54:58;;;;;;;12.10;7.20;;;;;;;;;;5048857;28;20048;-56
2021/09/11 00:57:24;;;;;;;13.45;7.45;;;;;;;;;;5033561;28;20026;-55
2021/09/11 00:59:50;;;;;;;12.70;7.90;;;;;;;;;;5033343;28;20033;-56
2021/09/11 01:02:16;;;;;;;13.27;8.30;;;;;;;;;;5033264;28;20060;-56
2021/09/11 01:04:42;;;;;;;15.85;7.22;;;;;;;;;;5045288;28;20463;-56
2021/09/11 01:07:08;;;;;;;14.38;7.75;;;;;;;;;;5053418;28;20021;-56
2021/09/11 01:09:34;;;;;;;13.68;7.65;;;;;;;;;;5053056;28;20120;-56
2021/09/11 01:12:00;;;;;;;13.25;7.03;;;;;;;;;;5034016;28;20434;-56
2021/09/11 01:14:26;;;;;;;13.77;7.85;;;;;;;;;;5032343;28;20120;-56
2021/09/11 01:16:52;;;;;;;13.05;7.90;;;;;;;;;;5032702;28;20029;-56
2021/09/11 01:19:18;;;;;;;13.05;7.28;;;;;;;;;;5042494;28;20025;-56
2021/09/11 01:21:44;;;;;;;17.85;7.97;;;;;;;;;;5053090;28;20021;-56
2021/09/11 01:24:10;;;;;;;17.17;9.32;;;;;;;;;;5051622;28;20553;-56
2021/09/11 01:26:36;;;;;;;12.63;7.53;;;;;;;;;;5038286;28;20032;-56
2021/09/11 01:29:02;;;;;;;14.05;8.68;;;;;;;;;;5033037;28;20344;-56
2021/09/11 01:31:32;;;;;;;13.45;7.82;;;;;;;;;;5032490;28;20447;-56
2021/09/11 01:33:58;;;;;;;13.85;8.45;;;;;;;;;;5038732;28;20473;-56
2021/09/11 01:36:24;;;;;;;12.95;8.00;;;;;;;;;;5052449;28;20401;-56
2021/09/11 01:38:50;;;;;;;13.55;7.63;;;;;;;;;;5052639;28;20039;-56
2021/09/11 01:41:16;;;;;;;17.17;7.85;;;;;;;;;;5041376;28;20021;-56
2021/09/11 01:43:42;;;;;;;13.50;8.45;;;;;;;;;;5031974;28;20037;-56
2021/09/11 01:46:08;;;;;;;12.15;7.43;;;;;;;;;;5032839;28;20109;-56
2021/09/11 01:48:34;;;;;;;18.80;9.98;;;;;;;;;;5041549;28;20029;-56
2021/09/11 01:51:00;;;;;;;15.75;9.18;;;;;;;;;;5052456;28;20049;-56
2021/09/11 01:53:26;;;;;;;17.05;8.98;;;;;;;;;;5052037;28;20100;-56
2021/09/11 01:55:52;;;;;;;15.00;8.98;;;;;;;;;;5045822;28;20079;-56
2021/09/11 01:58:18;;;;;;;18.27;10.38;;;;;;;;;;5032834;28;20639;-55
2021/09/11 02:00:44;;;;;;;16.90;9.43;;;;;;;;;;5032445;28;20100;-56
2021/09/11 02:03:10;;;;;;;20.63;9.85;;;;;;;;;;5032554;28;20025;-56
2021/09/11 02:05:37;;;;;;;17.92;9.40;;;;;;;;;;5051814;28;20398;-56
2021/09/11 02:08:03;;;;;;;17.98;9.57;;;;;;;;;;5052012;28;20378;-56
2021/09/11 02:10:29;;;;;;;18.05;9.60;;;;;;;;;;5050162;28;20060;-56
2021/09/11 02:12:55;;;;;;;17.60;10.20;;;;;;;;;;5032272;28;20064;-56
2021/09/11 02:15:21;;;;;;;14.68;8.25;;;;;;;;;;5031672;28;20041;-56
2021/09/11 02:17:47;;;;;;;16.88;9.38;;;;;;;;;;5032216;28;20028;-56
2021/09/11 02:20:13;;;;;;;16.30;8.80;;;;;;;;;;5049633;28;20037;-56
2021/09/11 02:22:40;;;;;;;14.65;9.57;;;;;;;;;;5052061;28;20070;-56
2021/09/11 02:25:06;;;;;;;24.27;11.00;;;;;;;;;;5051630;28;20037;-56
2021/09/11 02:27:33;;;;;;;14.80;9.48;;;;;;;;;;5033759;28;20478;-56
2021/09/11 02:29:59;;;;;;;16.45;9.32;;;;;;;;;;5032177;28;20040;-56
2021/09/11 02:32:25;;;;;;;16.15;9.90;;;;;;;;;;5032074;28;20029;-56
2021/09/11 02:34:51;;;;;;;14.75;9.38;;;;;;;;;;5035813;28;20463;-56
2021/09/11 02:37:16;;;;;;;17.58;9.55;;;;;;;;;;5052048;28;20016;-56
2021/09/11 02:39:43;;;;;;;13.90;8.65;;;;;;;;;;5052267;28;20445;-56
2021/09/11 02:42:09;;;;;;;19.13;10.02;;;;;;;;;;5050697;28;20443;-56
2021/09/11 02:44:35;;;;;;;17.52;9.90;;;;;;;;;;5051018;28;20356;-56
2021/09/11 02:47:02;;;;;;;14.95;8.98;;;;;;;;;;5052454;28;20465;-56
2021/09/11 02:49:28;;;;;;;14.10;8.70;;;;;;;;;;5050099;28;20067;-56
2021/09/11 02:51:54;;;;;;;18.88;10.30;;;;;;;;;;5055856;28;20017;-55
2021/09/11 02:54:20;;;;;;;16.10;9.55;;;;;;;;;;5054363;28;20405;-56
2021/09/11 02:56:46;;;;;;;14.93;9.00;;;;;;;;;;5045549;28;20037;-56
2021/09/11 02:59:12;;;;;;;14.40;8.60;;;;;;;;;;5035597;28;20025;-56
2021/09/11 03:01:38;;;;;;;15.27;8.82;;;;;;;;;;5036010;28;20049;-56
2021/09/11 03:04:04;;;;;;;18.75;9.20;;;;;;;;;;5042263;28;20056;-55
2021/09/11 03:06:30;;;;;;;12.82;7.97;;;;;;;;;;5055832;28;20022;-56
2021/09/11 03:08:56;;;;;;;15.50;8.77;;;;;;;;;;5055098;28;20044;-56
2021/09/11 03:11:22;;;;;;;16.85;8.95;;;;;;;;;;5049300;28;20053;-56
2021/09/11 03:13:48;;;;;;;12.88;7.95;;;;;;;;;;5034674;28;20056;-56
2021/09/11 03:16:14;;;;;;;13.55;8.50;;;;;;;;;;5035452;28;20336;-56
2021/09/11 03:18:40;;;;;;;14.48;8.05;;;;;;;;;;5039544;28;20168;-56
2021/09/11 03:21:06;;;;;;;15.48;8.75;;;;;;;;;;5054980;28;20504;-56
2021/09/11 03:23:32;;;;;;;14.45;8.10;;;;;;;;;;5054253;28;20086;-56
2021/09/11 03:25:58;;;;;;;12.45;7.93;;;;;;;;;;5043028;28;20041;-56
2021/09/11 03:28:24;;;;;;;13.23;7.22;;;;;;;;;;5035312;28;20034;-56
2021/09/11 03:30:50;;;;;;;15.82;7.85;;;;;;;;;;5034897;28;20035;-56
2021/09/11 03:33:16;;;;;;;14.48;8.20;;;;;;;;;;5052641;28;20033;-56
2021/09/11 03:35:42;;;;;;;14.80;8.50;;;;;;;;;;5053812;28;20063;-56
2021/09/11 03:38:08;;;;;;;15.50;8.25;;;;;;;;;;5054760;28;20052;-56
2021/09/11 03:40:34;;;;;;;13.18;7.47;;;;;;;;;;5054669;28;20108;-56
2021/09/11 03:43:00;;;;;;;14.18;7.93;;;;;;;;;;5038226;28;20108;-56
2021/09/11 03:45:26;;;;;;;12.05;7.50;;;;;;;;;;5033739;28;20459;-56
2021/09/11 03:47:52;;;;;;;17.17;7.82;;;;;;;;;;5033488;28;20022;-56
2021/09/11 03:50:18;;;;;;;13.30;6.93;;;;;;;;;;5051641;28;20047;-56
2021/09/11 03:52:44;;;;;;;13.85;7.20;;;;;;;;;;5054789;28;20028;-56
2021/09/11 03:55:10;;;;;;;11.90;6.90;;;;;;;;;;5053758;28;20029;-56
2021/09/11 03:57:36;;;;;;;11.55;7.13;;;;;;;;;;5042126;28;20140;-56
2021/09/11 04:00:02;;;;;;;11.32;6.80;;;;;;;;;;5034045;28;20495;-55
2021/09/11 04:02:28;;;;;;;13.57;6.75;;;;;;;;;;5034324;28;20359;-55
2021/09/11 04:04:54;;;;;;;12.88;7.28;;;;;;;;;;5046713;28;20032;-56
2021/09/11 04:07:20;;;;;;;13.23;7.68;;;;;;;;;;5054446;28;20340;-56
2021/09/11 04:09:46;;;;;;;13.85;7.95;;;;;;;;;;5054128;28;20059;-56
2021/09/11 04:12:12;;;;;;;12.88;7.63;;;;;;;;;;5045696;28;20033;-56
2021/09/11 04:14:38;;;;;;;21.08;7.63;;;;;;;;;;5033796;28;20024;-56
2021/09/11 04:17:04;;;;;;;10.98;6.85;;;;;;;;;;5034197;28;20226;-56
2021/09/11 04:19:30;;;;;;;17.50;8.40;;;;;;;;;;5037098;28;20036;-56
2021/09/11 04:21:56;;;;;;;10.48;6.32;;;;;;;;;;5053687;28;20029;-56
2021/09/11 04:24:22;;;;;;;11.60;6.78;;;;;;;;;;5053377;28;20025;-56
2021/09/11 04:26:48;;;;;;;15.57;7.45;;;;;;;;;;5049409;28;20091;-56
2021/09/11 04:29:14;;;;;;;12.55;7.18;;;;;;;;;;5034219;28;20120;-55
2021/09/11 04:31:40;;;;;;;14.10;7.65;;;;;;;;;;5033741;28;20029;-56
2021/09/11 04:34:06;;;;;;;14.45;8.23;;;;;;;;;;5033324;28;20029;-56
2021/09/11 04:36:32;;;;;;;12.35;6.63;;;;;;;;;;5053561;28;20076;-56
2021/09/11 04:38:58;;;;;;;15.13;8.05;;;;;;;;;;5053867;28;20029;-56
2021/09/11 04:41:24;;;;;;;13.82;8.27;;;;;;;;;;5053453;28;20448;-55
2021/09/11 04:43:50;;;;;;;15.02;8.52;;;;;;;;;;5033108;28;20032;-56
2021/09/11 04:46:16;;;;;;;12.95;7.63;;;;;;;;;;5033474;28;20056;-56
2021/09/11 04:48:42;;;;;;;12.52;7.13;;;;;;;;;;5033498;28;20414;-56
2021/09/11 04:51:08;;;;;;;15.32;8.63;;;;;;;;;;5049276;28;20108;-55
2021/09/11 04:53:34;;;;;;;15.15;8.55;;;;;;;;;;5052831;28;20029;-56
2021/09/11 04:56:00;;;;;;;13.05;8.00;;;;;;;;;;5053472;28;20453;-56
2021/09/11 04:58:26;;;;;;;13.23;8.20;;;;;;;;;;5038554;28;20519;-56
2021/09/11 05:00:52;;;;;;;16.55;9.07;;;;;;;;;;5032978;28;20021;-55
2021/09/11 05:03:18;;;;;;;12.75;7.97;;;;;;;;;;5033731;28;20025;-56
2021/09/11 05:05:44;;;;;;;14.45;7.75;;;;;;;;;;5037282;28;20032;-55
2021/09/11 05:08:11;;;;;;;11.25;7.22;;;;;;;;;;5053477;28;20021;-56
2021/09/11 05:10:37;;;;;;;14.05;8.18;;;;;;;;;;5052033;28;20063;-56
2021/09/11 05:13:03;;;;;;;14.88;8.27;;;;;;;;;;5052207;28;20425;-56
2021/09/11 05:15:29;;;;;;;14.65;6.75;;;;;;;;;;5052444;28;20040;-56
2021/09/11 05:17:55;;;;;;;15.35;7.15;;;;;;;;;;5053136;28;20060;-56
2021/09/11 05:20:21;;;;;;;11.68;7.70;;;;;;;;;;5051329;28;20031;-56
2021/09/11 05:22:47;;;;;;;14.05;8.40;;;;;;;;;;5052765;28;20107;-56
2021/09/11 05:25:13;;;;;;;14.55;7.20;;;;;;;;;;5052819;28;20449;-56
2021/09/11 05:27:39;;;;;;;11.88;7.13;;;;;;;;;;5051543;28;20068;-55
2021/09/11 05:30:06;;;;;;;16.60;8.40;;;;;;;;;;5052690;28;20389;-56
2021/09/11 05:32:33;;;;;;;12.85;7.70;;;;;;;;;;5052828;28;20163;-56
2021/09/11 05:34:59;;;;;;;15.38;8.38;;;;;;;;;;5046164;28;20527;-56
2021/09/11 05:37:25;;;;;;;12.73;7.40;;;;;;;;;;5052347;28;20108;-56
2021/09/11 05:39:51;;;;;;;11.65;7.28;;;;;;;;;;5052768;28;20443;-56
2021/09/11 05:42:17;;;;;;;12.43;8.35;;;;;;;;;;5049979;28;20049;-56
2021/09/11 05:44:44;;;;;;;11.63;7.85;;;;;;;;;;5032130;28;20036;-56
2021/09/11 05:47:10;;;;;;;13.15;7.57;;;;;;;;;;5032762;28;20022;-56
2021/09/11 05:49:36;;;;;;;12.05;7.57;;;;;;;;;;5035946;28;20508;-56
2021/09/11 05:52:02;;;;;;;16.08;7.88;;;;;;;;;;5052188;28;20063;-56
2021/09/11 05:54:28;;;;;;;14.65;8.50;;;;;;;;;;5051930;28;20032;-55
2021/09/11 05:56:54;;;;;;;18.50;8.07;;;;;;;;;;5052552;28;20028;-56
2021/09/11 05:59:20;;;;;;;14.07;7.35;;;;;;;;;;5034079;28;20112;-56
2021/09/11 06:01:46;;;;;;;11.95;8.50;;;;;;;;;;5032660;28;20048;-56
2021/09/11 06:04:12;;;;;;;11.10;6.40;;;;;;;;;;5032250;28;20043;-56
2021/09/11 06:06:38;;;;;;;13.18;8.40;;;;;;;;;;5052284;28;20473;-55
2021/09/11 06:09:04;;;;;;;18.23;8.50;;;;;;;;;;5052572;28;20078;-56
2021/09/11 06:11:30;;;;;;;15.32;7.93;;;;;;;;;;5052397;28;20049;-56
2021/09/11 06:13:56;;;;;;;16.45;9.30;;;;;;;;;;5037569;28;20059;-55
2021/09/11 06:16:22;;;;;;;12.80;7.82;;;;;;;;;;5032795;28;20022;-56
2021/09/11 06:18:48;;;;;;;16.75;9.13;;;;;;;;;;5032007;28;20181;-55
2021/09/11 06:21:14;;;;;;;13.63;8.02;;;;;;;;;;5049596;28;20021;-56
2021/09/11 06:23:40;;;;;;;15.93;8.63;;;;;;;;;;5055220;28;20098;-56
2021/09/11 06:26:06;;;;;;;22.15;9.52;;;;;;;;;;5056178;28;20033;-55
2021/09/11 06:28:32;;;;;;;14.07;8.40;;;;;;;;;;5044594;28;20029;-56
2021/09/11 06:30:58;;;;;;;15.82;8.27;;;;;;;;;;5035896;28;20446;-56
2021/09/11 06:33:24;;;;;;;13.25;9.00;;;;;;;;;;5035862;28;20030;-56
2021/09/11 06:35:50;;;;;;;17.27;9.48;;;;;;;;;;5049287;28;20025;-55
2021/09/11 06:38:17;;;;;;;14.35;8.90;;;;;;;;;;5055899;28;20048;-56
2021/09/11 06:40:43;;;;;;;17.55;9.30;;;;;;;;;;5056272;28;20071;-56
2021/09/11 06:43:09;;;;;;;13.75;9.02;;;;;;;;;;5050045;28;20045;-56
2021/09/11 06:45:35;;;;;;;16.73;8.73;;;;;;;;;;5035630;28;20436;-56
2021/09/11 06:48:01;;;;;;;17.23;8.65;;;;;;;;;;5035893;28;20022;-55
2021/09/11 06:50:27;;;;;;;14.35;9.25;;;;;;;;;;5044867;28;20059;-56
2021/09/11 06:52:53;;;;;;;14.68;9.10;;;;;;;;;;5055815;28;20025;-56
2021/09/11 06:55:20;;;;;;;17.13;8.80;;;;;;;;;;5054800;28;20151;-56
2021/09/11 06:57:46;;;;;;;13.90;8.43;;;;;;;;;;5054003;28;20494;-56
2021/09/11 07:00:12;;;;;;;15.68;8.32;;;;;;;;;;5036005;28;20061;-55
2021/09/11 07:02:38;;;;;;;14.00;8.18;;;;;;;;;;5035543;28;20021;-55
2021/09/11 07:05:04;;;;;;;15.75;8.45;;;;;;;;;;5042576;28;20025;-56
2021/09/11 07:07:32;;;;;;;15.88;9.30;;;;;;;;;;5055081;28;20027;-53
2021/09/11 07:09:58;;;;;;;14.40;8.88;;;;;;;;;;5052634;28;20024;-54
2021/09/11 07:12:24;;;;;;;15.68;7.80;;;;;;;;;;5034895;28;20329;-54
2021/09/11 07:14:50;;;;;;;14.93;7.90;;;;;;;;;;5034135;28;20348;-54
2021/09/11 07:17:16;;;;;;;14.07;8.23;;;;;;;;;;5035313;28;20030;-54
2021/09/11 07:19:42;;;;;;;12.15;7.68;;;;;;;;;;5039702;28;20063;-54
2021/09/11 07:22:08;;;;;;;16.08;8.20;;;;;;;;;;5055134;28;20024;-55
2021/09/11 07:24:34;;;;;;;15.52;8.07;;;;;;;;;;5054449;28;20098;-56
2021/09/11 07:27:00;;;;;;;13.35;7.63;;;;;;;;;;5054834;28;20033;-55
2021/09/11 07:29:26;;;;;;;16.63;9.20;;;;;;;;;;5042147;28;20439;-55
2021/09/11 07:31:52;;;;;;;12.60;7.45;;;;;;;;;;5035326;28;20029;-55
2021/09/11 07:34:18;;;;;;;21.67;8.07;;;;;;;;;;5034449;28;20053;-55
2021/09/11 07:36:44;;;;;;;12.77;7.30;;;;;;;;;;5054601;28;20423;-55
2021/09/11 07:39:10;;;;;;;13.52;7.82;;;;;;;;;;5054846;28;20406;-55
2021/09/11 07:41:36;;;;;;;12.27;7.40;;;;;;;;;;5054665;28;20439;-55
2021/09/11 07:44:02;;;;;;;12.15;6.78;;;;;;;;;;5045331;28;20048;-55
2021/09/11 07:46:28;;;;;;;13.23;7.60;;;;;;;;;;5034689;28;20032;-55
2021/09/11 07:48:54;;;;;;;11.32;6.80;;;;;;;;;;5034769;28;20320;-55
2021/09/11 07:51:20;;;;;;;11.02;6.82;;;;;;;;;;5044319;28;20041;-55
2021/09/11 07:53:46;;;;;;;10.95;7.32;;;;;;;;;;5053526;28;20099;-55
2021/09/11 07:56:12;;;;;;;10.27;5.88;;;;;;;;;;5053985;28;20033;-54
2021/09/11 07:58:38;;;;;;;13.07;5.55;;;;;;;;;;5050158;28;20148;-55
2021/09/11 08:01:04;;;;;;;12.82;6.35;;;;;;;;;;5034849;28;20108;-55
2021/09/11 08:03:30;;;;;;;11.13;5.85;;;;;;;;;;5033944;28;20068;-55
2021/09/11 08:05:56;;;;;;;9.00;5.55;;;;;;;;;;5040590;28;20078;-54
2021/09/11 08:08:23;;;;;;;13.98;5.63;;;;;;;;;;5054403;28;20108;-55
2021/09/11 08:10:49;;;;;;;8.48;5.53;;;;;;;;;;5053923;28;20112;-55
2021/09/11 08:13:15;;;;;;;7.88;4.88;;;;;;;;;;5049455;28;20013;-55
2021/09/11 08:15:43;;;;;;;9.30;4.78;;;;;;;;;;5033415;28;20030;-54
2021/09/11 08:18:10;;;;;;;9.32;5.18;;;;;;;;;;5034466;28;20021;-55
2021/09/11 08:20:36;;;;;;;12.50;5.85;;;;;;;;;;5037512;28;20055;-55
2021/09/11 08:23:02;;;;;;;10.48;5.35;;;;;;;;;;5053740;28;20021;-54
2021/09/11 08:25:28;;;;;;;10.10;6.18;;;;;;;;;;5053324;28;20457;-55
2021/09/11 08:27:54;;;;;;;9.13;5.55;;;;;;;;;;5053670;28;20029;-54
2021/09/11 08:30:20;;;;;;;9.23;5.97;;;;;;;;;;5037651;28;20363;-54
2021/09/11 08:32:46;;;;;;;10.55;6.03;;;;;;;;;;5033965;28;20056;-55
2021/09/11 08:35:13;;;;;;;15.00;5.95;;;;;;;;;;5033583;28;20052;-55
2021/09/11 08:37:39;;;;;;;10.07;5.90;;;;;;;;;;5053453;28;20024;-55
2021/09/11 08:40:06;;;;;;;11.10;5.45;;;;;;;;;;5054015;28;20036;-54
2021/09/11 08:42:32;;;;;;;11.68;5.60;;;;;;;;;;5053749;28;20017;-53
2021/09/11 08:44:58;;;;;;;9.02;5.70;;;;;;;;;;5040186;28;20363;-53
2021/09/11 08:47:24;;;;;;;13.93;6.35;;;;;;;;;;5032994;28;20439;-53
2021/09/11 08:49:50;;;;;;;11.63;6.57;;;;;;;;;;5033175;28;20359;-53
2021/09/11 08:52:16;;;;;;;10.85;5.50;;;;;;;;;;5051055;28;20025;-54
2021/09/11 08:54:42;;;;;;;8.05;5.43;;;;;;;;;;5052730;28;20029;-53
2021/09/11 08:57:23;;;;;;;8.90;5.18;;;;;;;;;;5053534;28;20021;-53
2021/09/11 08:59:50;;;;;;;8.35;5.07;;;;;;;;;;5043034;28;20052;-52
2021/09/11 09:02:17;;;;;;;12.55;6.28;;;;;;;;;;5033615;28;20049;-53
2021/09/11 09:04:50;;;;;;;10.02;5.47;;;;;;;;;;5031575;28;20075;-52
2021/09/11 09:07:34;;;;;;;12.15;6.65;;;;;;;;;;5050837;28;20086;-53
2021/09/11 09:10:02;;;;;;;11.13;5.57;;;;;;;;;;5053544;28;20079;-53
2021/09/11 09:12:38;;;;;;;7.63;5.20;;;;;;;;;;5052923;28;20419;-52
2021/09/11 09:15:12;;;;;;;9.23;5.55;;;;;;;;;;5032034;28;20044;-52
2021/09/11 09:17:39;;;;;;;10.38;4.97;;;;;;;;;;5033469;28;20029;-52
2021/09/11 09:20:10;;;;;;;7.45;4.65;;;;;;;;;;5032694;28;20083;-52
2021/09/11 09:22:36;;;;;;;8.85;5.07;;;;;;;;;;5045401;28;20024;-52
2021/09/11 09:25:02;;;;;;;8.38;4.30;;;;;;;;;;5052143;28;20029;-53
2021/09/11 09:27:28;;;;;;;6.97;4.72;;;;;;;;;;5052663;28;20466;-52
2021/09/11 09:30:00;;;;;;;7.57;4.50;;;;;;;;;;5051614;28;20159;-53
2021/09/11 09:32:36;;;;;;;7.00;4.38;;;;;;;;;;5053161;28;20035;-52
2021/09/11 09:35:15;;;;;;;9.05;3.97;;;;;;;;;;5047301;28;20082;-53
2021/09/11 09:37:52;;;;;;;5.18;3.70;;;;;;;;;;5048493;28;20021;-52
2021/09/11 09:40:31;;;;;;;8.32;4.70;;;;;;;;;;5048106;28;20064;-52
2021/09/11 09:42:57;;;;;;;4.75;3.65;;;;;;;;;;5049713;28;20033;-53
2021/09/11 09:45:28;;;;;;;4.10;2.95;;;;;;;;;;5041247;28;20477;-52
2021/09/11 09:48:08;;;;;;;3.60;2.85;;;;;;;;;;5052865;28;20028;-52
2021/09/11 09:50:36;;;;;;;4.90;3.20;;;;;;;;;;5051054;28;20033;-53
2021/09/11 09:53:02;;;;;;;3.88;2.78;;;;;;;;;;5052380;28;20036;-53
2021/09/11 09:55:28;;;;;;;2.53;2.22;;;;;;;;;;5052025;28;20029;-53
2021/09/11 09:57:54;;;;;;;1.73;1.60;;;;;;;;;;5054808;28;20017;-52
2021/09/11 10:00:20;;;;;;;1.90;1.40;;;;;;;;;;5046706;28;20025;-52
2021/09/11 10:02:47;;;;;;;3.65;2.28;;;;;;;;;;5036541;28;20067;-52
2021/09/11 10:05:13;;;;;;;2.25;1.83;;;;;;;;;;5036067;28;20029;-52
2021/09/11 10:07:58;;;;;;;3.65;1.98;;;;;;;;;;5049546;28;20040;-53
2021/09/11 10:10:28;;;;;;;1.73;1.60;;;;;;;;;;5054661;28;20455;-51
2021/09/11 10:13:03;;;;;;;2.05;1.40;;;;;;;;;;5054580;28;20017;-51
2021/09/11 10:15:35;;;;;;;2.13;1.65;;;;;;;;;;5034289;28;20036;-51
2021/09/11 10:18:01;;;;;;;1.70;1.40;;;;;;;;;;5050549;28;20455;-52
2021/09/11 10:20:27;;;;;;;1.60;1.50;;;;;;;;;;5046166;28;20028;-51
2021/09/11 10:23:06;;;;;;;1.63;1.02;;;;;;;;;;5055892;28;20036;-52
2021/09/11 10:25:43;;;;;;;1.25;1.00;;;;;;;;;;5055024;28;20031;-51
2021/09/11 10:28:16;;;;;;;1.17;1.08;;;;;;;;;;5055183;28;20048;-52
2021/09/11 10:31:01;;;;;;;1.58;1.13;;;;;;;;;;5035171;28;20044;-52
2021/09/11 10:33:43;;;;;;;1.50;1.17;;;;;;;;;;5035079;28;20036;-51
2021/09/11 10:36:11;;;;;;;1.75;0.80;;;;;;;;;;5043830;28;20033;-51
2021/09/11 10:38:38;;;;;;;1.38;0.90;;;;;;;;;;5055704;28;20032;-51
2021/09/11 10:41:11;;;;;;;1.63;1.10;;;;;;;;;;5055076;28;20056;-51
2021/09/11 10:43:38;;;;;;;0.95;0.90;;;;;;;;;;5054875;28;20538;-51
2021/09/11 10:46:09;;;;;;;0.98;0.93;;;;;;;;;;5043247;28;20091;-51
2021/09/11 10:48:50;;;;;;;0.90;0.90;;;;;;;;;;5035457;28;20049;-51
2021/09/11 10:51:19;;;;;;;1.45;0.95;;;;;;;;;;5044824;28;20107;-51
2021/09/11 10:54:07;;;;;;;0.60;0.60;;;;;;;;;;5054649;28;20351;-51
2021/09/11 10:56:39;;;;;;;1.38;0.95;;;;;;;;;;5055093;28;20100;-51
2021/09/11 10:59:14;;;;;;;2.35;0.70;;;;;;;;;;5055490;28;20017;-51
2021/09/11 11:01:59;;;;;;;0.63;0.63;;;;;;;;;;5053933;28;20429;-51
2021/09/11 11:04:28;;;;;;;1.08;0.80;;;;;;;;;;5054444;28;20033;-51
2021/09/11 11:06:55;;;;;;;0.60;0.60;;;;;;;;;;5054526;28;20033;-51
2021/09/11 11:09:21;;;;;;;0.60;0.60;;;;;;;;;;5054335;28;20037;-52
2021/09/11 11:11:48;;;;;;;1.38;0.80;;;;;;;;;;5054169;28;20354;-51
2021/09/11 11:14:14;;;;;;;1.17;0.60;;;;;;;;;;5041697;28;20120;-51
2021/09/11 11:16:54;;;;;;;1.40;0.88;;;;;;;;;;5034701;28;20032;-51
2021/09/11 11:19:20;;;;;;;0.63;0.63;;;;;;;;;;5034963;28;20337;-51
2021/09/11 11:21:53;;;;;;;0.82;0.82;;;;;;;;;;5039531;28;20036;-51
2021/09/11 11:24:19;;;;;;;1.48;0.95;;;;;;;;;;5053986;28;20435;-51
2021/09/11 11:26:46;;;;;;;1.20;1.08;;;;;;;;;;5054405;28;20402;-51
2021/09/11 11:29:13;;;;;;;0.70;0.70;;;;;;;;;;5055006;28;20032;-51
2021/09/11 11:31:43;;;;;;;0.60;0.60;;;;;;;;;;5040543;28;20363;-51
2021/09/11 11:34:09;;;;;;;0.80;0.80;;;;;;;;;;5033363;28;20068;-51
2021/09/11 11:36:35;;;;;;;1.33;1.20;;;;;;;;;;5037996;28;20100;-51
2021/09/11 11:39:20;;;;;;;1.10;1.00;;;;;;;;;;5054301;28;20109;-52
2021/09/11 11:42:01;;;;;;;1.48;1.05;;;;;;;;;;5054746;28;20029;-51
2021/09/11 11:44:27;;;;;;;2.05;1.20;;;;;;;;;;5053584;28;20053;-50
2021/09/11 11:47:05;;;;;;;1.88;1.02;;;;;;;;;;5039107;28;20029;-51
2021/09/11 11:49:37;;;;;;;1.10;1.00;;;;;;;;;;5034883;28;20041;-51
2021/09/11 11:52:04;;;;;;;0.90;0.80;;;;;;;;;;5049129;28;20028;-51
2021/09/11 11:54:30;;;;;;;1.60;1.00;;;;;;;;;;5053427;28;20065;-51
2021/09/11 11:57:05;;;;;;;1.30;0.80;;;;;;;;;;5054073;28;20225;-51
2021/09/11 11:59:31;;;;;;;1.20;1.00;;;;;;;;;;5054588;28;20086;-51
2021/09/11 12:01:57;;;;;;;1.80;0.88;;;;;;;;;;5038506;28;20459;-51
2021/09/11 12:04:23;;;;;;;3.75;0.95;;;;;;;;;;5033939;28;20120;-51
2021/09/11 12:06:50;;;;;;;1.58;1.30;;;;;;;;;;5039320;28;20096;-51
2021/09/11 12:09:17;;;;;;;1.73;1.30;;;;;;;;;;5053672;28;20445;-51
2021/09/11 12:11:44;;;;;;;1.40;1.30;;;;;;;;;;5054377;28;20021;-51
2021/09/11 12:14:10;;;;;;;1.27;1.15;;;;;;;;;;5040560;28;20029;-51
2021/09/11 12:16:36;;;;;;;6.10;1.25;;;;;;;;;;5032620;28;20053;-51
2021/09/11 12:19:09;;;;;;;1.50;1.10;;;;;;;;;;5034185;28;20379;-51
2021/09/11 12:21:35;;;;;;;1.60;1.50;;;;;;;;;;5037293;28;20025;-51
2021/09/11 12:24:01;;;;;;;3.08;1.40;;;;;;;;;;5053203;28;20024;-51
2021/09/11 12:26:29;;;;;;;1.73;1.20;;;;;;;;;;5053701;28;20037;-51
2021/09/11 12:29:15;;;;;;;2.28;1.60;;;;;;;;;;5052915;28;20317;-51
2021/09/11 12:31:50;;;;;;;2.03;1.30;;;;;;;;;;5042821;28;20033;-51
2021/09/11 12:34:18;;;;;;;1.38;1.27;;;;;;;;;;5030969;28;20071;-51
2021/09/11 12:36:48;;;;;;;2.95;1.50;;;;;;;;;;5037506;28;20447;-51
2021/09/11 12:39:20;;;;;;;2.15;1.55;;;;;;;;;;5053559;28;20358;-51
2021/09/11 12:41:49;;;;;;;2.35;1.40;;;;;;;;;;5053659;28;20032;-51
2021/09/11 12:44:16;;;;;;;2.50;1.10;;;;;;;;;;5050955;28;20029;-51
2021/09/11 12:46:55;;;;;;;2.20;1.52;;;;;;;;;;5043156;28;20530;-51
2021/09/11 12:49:25;;;;;;;3.55;1.40;;;;;;;;;;5033472;28;20042;-51
2021/09/11 12:51:51;;;;;;;1.80;1.38;;;;;;;;;;5046905;28;20029;-51
2021/09/11 12:54:18;;;;;;;4.45;1.73;;;;;;;;;;5052023;28;20028;-51
2021/09/11 12:56:44;;;;;;;2.28;1.55;;;;;;;;;;5052934;28;20020;-51
2021/09/11 12:59:12;;;;;;;2.83;1.63;;;;;;;;;;5053350;28;20070;-51
2021/09/11 13:01:38;;;;;;;2.80;1.75;;;;;;;;;;5044177;28;20398;-50
2021/09/11 13:04:05;;;;;;;3.42;1.52;;;;;;;;;;5032840;28;20022;-51
2021/09/11 13:06:32;;;;;;;1.85;1.10;;;;;;;;;;5035763;28;20033;-51
2021/09/11 13:08:58;;;;;;;1.40;1.30;;;;;;;;;;5052671;28;20072;-51
2021/09/11 13:11:24;;;;;;;4.03;1.80;;;;;;;;;;5053508;28;20024;-51
2021/09/11 13:13:50;;;;;;;2.35;1.70;;;;;;;;;;5042731;28;20071;-51
2021/09/11 13:16:16;;;;;;;1.92;1.50;;;;;;;;;;5031610;28;20073;-51
2021/09/11 13:18:43;;;;;;;5.13;1.80;;;;;;;;;;5032538;28;20026;-51
2021/09/11 13:21:11;;;;;;;2.13;1.40;;;;;;;;;;5032611;28;20018;-51
2021/09/11 13:23:38;;;;;;;3.55;1.23;;;;;;;;;;5043140;28;20037;-51
2021/09/11 13:26:05;;;;;;;1.70;1.60;;;;;;;;;;5050136;28;20052;-51
2021/09/11 13:28:31;;;;;;;2.08;1.48;;;;;;;;;;5032283;28;20048;-51
2021/09/11 13:30:57;;;;;;;2.55;1.63;;;;;;;;;;5031952;28;20520;-51
2021/09/11 13:33:23;;;;;;;9.80;1.65;;;;;;;;;;5031317;28;20083;-51
2021/09/11 13:35:49;;;;;;;2.88;1.58;;;;;;;;;;5031897;28;20120;-53
2021/09/11 13:38:15;;;;;;;2.13;1.48;;;;;;;;;;5049450;28;20017;-51
2021/09/11 13:40:41;;;;;;;2.97;1.58;;;;;;;;;;5052823;28;20180;-51
2021/09/11 13:43:07;;;;;;;2.70;1.80;;;;;;;;;;5052114;28;20522;-51
2021/09/11 13:45:34;;;;;;;2.42;1.50;;;;;;;;;;5051677;28;20029;-51
2021/09/11 13:48:01;;;;;;;1.35;1.10;;;;;;;;;;5036344;28;20072;-51
2021/09/11 13:50:27;;;;;;;1.38;1.27;;;;;;;;;;5035094;28;20061;-51
2021/09/11 13:52:52;;;;;;;1.58;1.25;;;;;;;;;;5051042;28;20522;-51
2021/09/11 13:55:19;;;;;;;1.88;1.27;;;;;;;;;;5052147;28;20044;-51
2021/09/11 13:57:44;;;;;;;6.43;1.60;;;;;;;;;;5048894;28;20032;-51
2021/09/11 14:00:11;;;;;;;1.33;1.20;;;;;;;;;;5038832;28;20036;-51
2021/09/11 14:02:37;;;;;;;2.15;1.20;;;;;;;;;;5040447;28;20026;-52
2021/09/11 14:05:03;;;;;;;2.95;2.08;;;;;;;;;;5032550;28;20030;-51
2021/09/11 14:07:29;;;;;;;1.63;1.20;;;;;;;;;;5050199;28;20029;-52
2021/09/11 14:09:55;;;;;;;1.60;1.50;;;;;;;;;;5052190;28;20128;-51
2021/09/11 14:12:21;;;;;;;7.18;1.23;;;;;;;;;;5051935;28;20028;-51
2021/09/11 14:14:47;;;;;;;2.40;1.40;;;;;;;;;;5033819;28;20505;-51
2021/09/11 14:17:13;;;;;;;2.95;1.45;;;;;;;;;;5032116;28;20515;-51
2021/09/11 14:19:39;;;;;;;1.80;1.65;;;;;;;;;;5032149;28;20037;-51
2021/09/11 14:22:05;;;;;;;2.38;1.70;;;;;;;;;;5039084;28;20040;-51
2021/09/11 14:24:31;;;;;;;1.73;1.42;;;;;;;;;;5051294;28;20115;-51
2021/09/11 14:26:58;;;;;;;2.83;1.58;;;;;;;;;;5051730;28;20060;-51
2021/09/11 14:29:24;;;;;;;3.58;1.60;;;;;;;;;;5051025;28;20021;-51
2021/09/11 14:31:50;;;;;;;5.43;2.00;;;;;;;;;;5049040;28;21592;-51
2021/09/11 14:34:16;;;;;;;5.47;1.80;;;;;;;;;;5031167;28;20049;-52
2021/09/11 14:36:42;;;;;;;2.90;1.50;;;;;;;;;;5033514;28;20455;-52